Home > Products > Valid Products > MTR

000
SAUS44 KMEG 230054
MTRTUP
METAR KTUP 230053Z AUTO 27003KT 10SM CLR 30/23 A3000 RMK AO2 SLP153
T03000233





000
SAUS44 KMEG 222354
MTRTUP
METAR KTUP 222353Z AUTO 26005KT 10SM FEW048 33/22 A3000 RMK AO2
SLP153 T03280222 10361 20328 56010





000
SAUS44 KMEG 222254
MTRTUP
METAR KTUP 222253Z AUTO VRB03KT 10SM CLR 34/22 A3000 RMK AO2 SLP154
T03390217





000
SAUS44 KMEG 222154
MTRTUP
METAR KTUP 222153Z AUTO VRB04KT 10SM FEW060 35/21 A3001 RMK AO2
SLP156 T03500211





000
SAUS44 KMEG 222054
MTRTUP
METAR KTUP 222053Z AUTO 25005KT 10SM FEW050 36/21 A3002 RMK AO2
SLP161 T03560211 58017





000
SAUS44 KMEG 221954
MTRTUP
METAR KTUP 221953Z AUTO 10SM CLR 36/21 A3004 RMK AO2 SLP167
T03560211





000
SAUS44 KMEG 221854
MTRTUP
METAR KTUP 221853Z 30007KT 270V340 10SM CLR 35/21 A3006 RMK AO2
SLP173 T03500206





000
SAUS44 KMEG 221754
MTRTUP
METAR KTUP 221753Z 24008KT 10SM CLR 34/21 A3007 RMK AO2 SLP179
T03440211 10344 20239 58014





000
SAUS44 KMEG 221654
MTRTUP
METAR KTUP 221653Z 26004KT 10SM CLR 34/22 A3009 RMK AO2 SLP185
T03390222





000
SAUS44 KMEG 221554
MTRTUP
METAR KTUP 221553Z VRB04KT 10SM CLR 32/22 A3011 RMK AO2 SLP191
T03220222





000
SAUS44 KMEG 221454
MTRTUP
METAR KTUP 221453Z VRB04KT 10SM CLR 31/22 A3012 RMK AO2 SLP193
T03060222 50006





000
SAUS44 KMEG 221355
MTRTUP
METAR KTUP 221353Z 00000KT 10SM CLR 28/22 A3012 RMK AO2 SLP194
T02830222





000
SAUS44 KMEG 221254
MTRTUP
METAR KTUP 221253Z 28004KT 10SM CLR 26/22 A3011 RMK AO2 SLP191
T02610217





000
SAUS44 KMEG 221154
MTRTUP
METAR KTUP 221153Z 26004KT 10SM CLR 24/22 A3010 RMK AO2 SLP188
T02390217 10261 20239 53009





000
SAUS44 KMEG 221054
MTRTUP
METAR KTUP 221053Z 24004KT 10SM CLR 24/22 A3008 RMK AO2 SLP181
T02390217





000
SAUS44 KMEG 220954
MTRTUP
METAR KTUP 220953Z AUTO 27003KT 10SM CLR 24/22 A3008 RMK AO2 SLP179
T02390217





000
SAUS44 KMEG 220854
MTRTUP
METAR KTUP 220853Z AUTO 25003KT 10SM CLR 24/22 A3007 RMK AO2 SLP178
T02390217 50006





000
SAUS44 KMEG 220754
MTRTUP
METAR KTUP 220753Z AUTO 00000KT 10SM CLR 25/22 A3007 RMK AO2 SLP178
T02500222





000
SAUS44 KMEG 220654
MTRTUP
METAR KTUP 220653Z AUTO 22005KT 10SM CLR 25/22 A3007 RMK AO2 SLP178
T02500222





000
SAUS44 KMEG 220554
MTRTUP
METAR KTUP 220553Z AUTO 00000KT 10SM CLR 26/22 A3005 RMK AO2 SLP172
T02560222 10328 20250 403500228 56013





000
SAUS44 KMEG 220454
MTRTUP
METAR KTUP 220453Z AUTO 20006KT 10SM CLR 26/22 A3006 RMK AO2 SLP173
T02560222





000
SAUS44 KMEG 220354
MTRTUP
METAR KTUP 220353Z AUTO 23003KT 10SM CLR 27/23 A3008 RMK AO2 SLP179
T02670228





000
SAUS44 KMEG 220254
MTRTUP
METAR KTUP 220253Z 22003KT 10SM CLR 27/23 A3009 RMK AO2 SLP184
T02670228 51013





000
SAUS44 KMEG 220154
MTRTUP
METAR KTUP 220153Z 00000KT 10SM CLR 28/23 A3008 RMK AO2 SLP181
T02830228





000
SAUS44 KMEG 220054
MTRTUP
METAR KTUP 220053Z 25003KT 10SM CLR 31/22 A3007 RMK AO2 SLP177
T03060222





000
SAUS44 KMEG 212354
MTRTUP
METAR KTUP 212353Z AUTO 26003KT 10SM CLR 33/22 A3005 RMK AO2 SLP172
T03280222 10350 20328 56006





000
SAUS44 KMEG 212254
MTRTUP
METAR KTUP 212253Z AUTO VRB03KT 10SM CLR 34/21 A3005 RMK AO2 SLP171
T03390211





000
SAUS44 KMEG 212154
MTRTUP
METAR KTUP 212153Z AUTO VRB05KT 10SM CLR 34/21 A3006 RMK AO2 SLP172
T03440211





000
SAUS44 KMEG 212054
MTRTUP
METAR KTUP 212053Z AUTO VRB03KT 10SM CLR 34/22 A3007 RMK AO2 SLP176
T03440217 58018





000
SAUS44 KMEG 211954
MTRTUP
METAR KTUP 211953Z AUTO VRB05KT 10SM SCT049 SCT055 35/22 A3009 RMK
AO2 SLP184 T03500217





000
SAUS44 KMEG 211854
MTRTUP
METAR KTUP 211853Z VRB05KT 10SM CLR 34/21 A3011 RMK AO2 SLP191
T03390211





000
SAUS44 KMEG 211754
MTRTUP
METAR KTUP 211753Z 26005KT 10SM BKN038 33/22 A3012 RMK AO2 SLP195
T03280217 10339 20239 58002





000
SAUS44 KMEG 211654
MTRTUP
METAR KTUP 211653Z 29004KT 10SM FEW032 33/23 A3014 RMK AO2 SLP199
T03280228





000
SAUS44 KMEG 211554
MTRTUP
METAR KTUP 211553Z 28007KT 10SM CLR 32/23 A3014 RMK AO2 SLP201
T03170228





000
SAUS44 KMEG 211454
MTRTUP
METAR KTUP 211453Z 27006KT 10SM CLR 31/22 A3013 RMK AO2 SLP196
T03110222 51003





000
SAUS44 KMEG 211354
MTRTUP
METAR KTUP 211353Z 28007KT 10SM CLR 28/22 A3013 RMK AO2 SLP197
T02830222





000
SAUS44 KMEG 211254
MTRTUP
METAR KTUP 211253Z 27003KT 10SM CLR 26/22 A3013 RMK AO2 SLP198
T02610222





000
SAUS44 KMEG 211154
MTRTUP
METAR KTUP 211153Z 00000KT 10SM CLR 23/21 A3012 RMK AO2 SLP194
T02330211 10250 20228 53017





000
SAUS44 KMEG 211054
MTRTUP
METAR KTUP 211053Z 00000KT 10SM CLR 24/22 A3010 RMK AO2 SLP186
T02390217





000
SAUS44 KMEG 210954
MTRTUP
METAR KTUP 210953Z AUTO 00000KT 10SM CLR 23/22 A3008 RMK AO2 SLP181
T02330217





000
SAUS44 KMEG 210854
MTRTUP
METAR KTUP 210853Z AUTO 00000KT 10SM CLR 23/22 A3007 RMK AO2 SLP176
T02280217 55001





000
SAUS44 KMEG 210754
MTRTUP
METAR KTUP 210753Z AUTO 27003KT 10SM CLR 24/22 A3006 RMK AO2 SLP174
T02390222





000
SAUS44 KMEG 210654
MTRTUP
METAR KTUP 210653Z AUTO 00000KT 10SM CLR 24/22 A3006 RMK AO2 SLP173
T02440222





000
SAUS44 KMEG 210554
MTRTUP
METAR KTUP 210553Z AUTO 00000KT 10SM CLR 25/23 A3007 RMK AO2 SLP177
T02500228 10317 20239 403560239 58003





000
SAUS44 KMEG 210454
MTRTUP
METAR KTUP 210453Z AUTO 00000KT 10SM CLR 25/23 A3007 RMK AO2 SLP178
T02500228





000
SAUS44 KMEG 210354
MTRTUP
METAR KTUP 210353Z AUTO 00000KT 10SM CLR 26/23 A3008 RMK AO2 SLP180
T02610228





000
SAUS44 KMEG 210254
MTRTUP
METAR KTUP 210253Z 00000KT 9SM CLR 27/23 A3008 RMK AO2 SLP179
T02720228 51027





000
SAUS44 KMEG 210154
MTRTUP
METAR KTUP 210153Z 00000KT 10SM CLR 28/23 A3006 RMK AO2 SLP174
T02830228





000
SAUS44 KMEG 210054
MTRTUP
METAR KTUP 210053Z 00000KT 10SM CLR 30/22 A3003 RMK AO2 SLP165
T03000222





000
SAUS44 KMEG 202354
MTRTUP
METAR KTUP 202353Z 25005KT 10SM CLR 32/22 A3000 RMK AO2 SLP153
T03170222 10356 20317 55002





000
SAUS44 KMEG 202254
MTRTUP
METAR KTUP 202253Z 28007KT 10SM CLR 34/22 A2999 RMK AO2 SLP149
T03390217





000
SAUS44 KMEG 202154
MTRTUP
METAR KTUP 202153Z 28007KT 10SM CLR 34/21 A3000 RMK AO2 SLP152
T03440206





000
SAUS44 KMEG 202054
MTRTUP
METAR KTUP 202053Z 29010KT 10SM CLR 35/20 A3000 RMK AO2 SLP154
T03500200 58014





000
SAUS44 KMEG 201954
MTRTUP
METAR KTUP 201953Z VRB06KT 10SM CLR 35/20 A3003 RMK AO2 SLP165
T03500200





000
SAUS44 KMEG 201854
MTRTUP
METAR KTUP 201853Z 32006KT 10SM FEW049 34/21 A3005 RMK AO2 SLP170
T03440211





000
SAUS44 KMEG 201754
MTRTUP
METAR KTUP 201753Z 28009KT 10SM CLR 34/21 A3005 RMK AO2 SLP169
T03390211 10339 20244 58001





000
SAUS44 KMEG 201654
MTRTUP
METAR KTUP 201653Z 32007G14KT 10SM CLR 33/22 A3005 RMK AO2 SLP171
T03330217





000
SAUS44 KMEG 201554
MTRTUP
METAR KTUP 201553Z 26009KT 10SM CLR 32/22 A3005 RMK AO2 SLP171
T03220222





000
SAUS44 KMEG 201454
MTRTUP
METAR KTUP 201453Z 28007KT 10SM CLR 31/23 A3005 RMK AO2 SLP169
T03060228 51017





000
SAUS44 KMEG 201354
MTRTUP
METAR KTUP 201353Z 28007KT 10SM CLR 28/23 A3003 RMK AO2 SLP166
T02830233





000
SAUS44 KMEG 201254
MTRTUP
METAR KTUP 201253Z 27004KT 10SM CLR 26/23 A3002 RMK AO2 SLP159
T02610233





000
SAUS44 KMEG 201154
MTRTUP
METAR KTUP 201153Z 25004KT 8SM CLR 24/23 A3000 RMK AO2 SLP153
T02440228 10261 20239 51020





000
SAUS44 KMEG 201054
MTRTUP
METAR KTUP 201053Z 25003KT 8SM CLR 24/23 A2998 RMK AO2 SLP146
T02440228





000
SAUS44 KMEG 200954
MTRTUP
METAR KTUP 200953Z AUTO 23004KT 9SM CLR 24/23 A2996 RMK AO2 SLP139
T02440228





000
SAUS44 KMEG 200854
MTRTUP
METAR KTUP 200853Z AUTO 00000KT 9SM CLR 24/23 A2994 RMK AO2 SLP132
T02440228 53004





000
SAUS44 KMEG 200754
MTRTUP
METAR KTUP 200753Z AUTO 00000KT 10SM CLR 25/23 A2992 RMK AO2 SLP127
T02500233





000
SAUS44 KMEG 200654
MTRTUP
METAR KTUP 200653Z AUTO 00000KT 10SM CLR 26/23 A2992 RMK AO2 SLP125
T02560233





000
SAUS44 KMEG 200554
MTRTUP
METAR KTUP 200553Z AUTO 23004KT 10SM CLR 26/23 A2993 RMK AO2 SLP128
T02560233 10322 20256 403390222 53000





000
SAUS44 KMEG 200454
MTRTUP
METAR KTUP 200453Z AUTO 22006KT 10SM CLR 27/23 A2992 RMK AO2 SLP128
T02720233





000
SAUS44 KMEG 200354
MTRTUP
METAR KTUP 200353Z AUTO 24008KT 10SM CLR 28/23 A2992 RMK AO2 SLP126
T02780233





000
SAUS44 KMEG 200254
MTRTUP
METAR KTUP 200253Z AUTO 00000KT 10SM CLR 28/23 A2992 RMK AO2 SLP128
T02780228 52018





000
SAUS44 KMEG 200154
MTRTUP
METAR KTUP 200153Z AUTO 23004KT 10SM CLR 28/23 A2991 RMK AO2 SLP123
T02830228





    US Dept of Commerce
    National Oceanic and Atmospheric Administration
    National Weather Service
    1325 East West Highway
    Silver Spring, MD 20910
    Page Author: NWS Internet Services Team
Disclaimer
Information Quality
Credits
Glossary
Privacy Policy
Freedom of Information Act (FOIA)
About Us
Career Opportunities